Time;durP1;ratioP1;P1;durP2;ratioP2;P2;SDS_P1;SDS_P2;PMS_P1;PMS_P2;Temp;Humidity;BMP_temperature;BMP_pressure;BME280_temperature;BME280_humidity;BME280_pressure;Samples;Min_cycle;Max_cycle;Signal;HPM_P1;HPM_P2
2023/01/05 00:01:11;;;;;;;0.10;0.10;;;11.80;99.90;;;;;;5054708;28;20205;-81
2023/01/05 00:03:37;;;;;;;0.10;0.10;;;11.80;99.90;;;;;;5051921;28;20204;-82
2023/01/05 00:06:09;;;;;;;0.10;0.10;;;11.80;99.90;;;;;;5065283;28;20192;-82
2023/01/05 00:08:34;;;;;;;0.10;0.10;;;11.80;99.90;;;;;;5049247;28;20177;-82
2023/01/05 00:24:51;;;;;;;0.10;0.10;;;11.70;99.90;;;;;;5054808;28;20233;-82
2023/01/05 00:27:17;;;;;;;0.10;0.10;;;11.70;99.90;;;;;;5052014;28;20293;-82
2023/01/05 00:29:42;;;;;;;0.10;0.10;;;11.70;99.90;;;;;;5053653;28;20572;-82
2023/01/05 00:32:08;;;;;;;0.00;0.00;;;11.60;99.90;;;;;;5053679;28;21097;-82
2023/01/05 00:34:33;;;;;;;0.10;0.10;;;11.60;99.90;;;;;;5052482;28;20185;-82
2023/01/05 00:36:59;;;;;;;0.10;0.10;;;11.60;99.90;;;;;;5069033;28;20190;-82
2023/01/05 00:39:24;;;;;;;0.10;0.10;;;11.60;99.90;;;;;;5069984;28;20189;-82
2023/01/05 00:41:50;;;;;;;0.10;0.10;;;11.60;99.90;;;;;;5054438;28;20291;-81
2023/01/05 00:44:15;;;;;;;0.10;0.10;;;11.60;99.90;;;;;;5051675;28;20693;-82
2023/01/05 00:46:41;;;;;;;0.10;0.10;;;11.60;99.90;;;;;;5053313;28;20319;-82
2023/01/05 00:49:06;;;;;;;0.10;0.10;;;11.50;99.90;;;;;;5066710;28;20177;-81
2023/01/05 00:51:32;;;;;;;0.10;0.10;;;11.50;99.90;;;;;;5068725;28;20186;-81
2023/01/05 00:53:57;;;;;;;0.10;0.10;;;11.60;99.90;;;;;;5067001;28;20213;-82
2023/01/05 00:56:23;;;;;;;0.10;0.10;;;11.60;99.90;;;;;;5052833;28;20213;-82
2023/01/05 00:58:52;;;;;;;0.10;0.10;;;11.60;99.90;;;;;;5054323;28;20260;-82
2023/01/05 01:01:18;;;;;;;0.10;0.10;;;11.60;99.90;;;;;;5049122;28;20891;-82
2023/01/05 01:03:43;;;;;;;0.10;0.10;;;11.60;99.90;;;;;;5051446;28;20300;-81
2023/01/05 01:06:09;;;;;;;0.10;0.10;;;11.60;99.90;;;;;;5054150;28;20196;-82
2023/01/05 01:08:34;;;;;;;0.10;0.10;;;11.60;99.90;;;;;;5051306;28;20276;-82
2023/01/05 01:11:05;;;;;;;0.10;0.10;;;11.60;99.90;;;;;;5067051;28;20204;-82
2023/01/05 01:13:30;;;;;;;0.10;0.10;;;11.60;99.90;;;;;;5051596;28;20209;-82
2023/01/05 01:15:56;;;;;;;0.10;0.10;;;11.60;99.90;;;;;;5067802;28;20204;-82
2023/01/05 01:18:22;;;;;;;0.10;0.10;;;11.70;99.90;;;;;;5051506;28;20186;-82
2023/01/05 01:20:47;;;;;;;0.10;0.10;;;11.70;99.90;;;;;;5065431;28;20229;-81
2023/01/05 01:23:13;;;;;;;0.07;0.07;;;11.60;99.90;;;;;;5049489;28;20267;-82
2023/01/05 01:25:38;;;;;;;0.10;0.10;;;11.70;99.90;;;;;;5053803;28;20185;-82
2023/01/05 01:28:05;;;;;;;0.10;0.10;;;11.70;99.90;;;;;;5055381;28;20213;-82
2023/01/05 01:30:30;;;;;;;0.10;0.10;;;11.70;99.90;;;;;;5055187;28;20178;-82
2023/01/05 01:32:56;;;;;;;0.00;0.00;;;11.70;99.90;;;;;;5069469;28;20216;-82
2023/01/05 01:35:21;;;;;;;0.10;0.10;;;11.70;99.90;;;;;;5054676;28;20250;-81
2023/01/05 01:37:47;;;;;;;0.10;0.10;;;11.70;99.90;;;;;;5069796;28;20186;-82
2023/01/05 01:40:12;;;;;;;0.10;0.10;;;11.80;99.90;;;;;;5055951;28;20190;-82
2023/01/05 01:42:38;;;;;;;0.10;0.10;;;11.80;99.90;;;;;;5070037;28;21208;-82
2023/01/05 01:45:24;;;;;;;0.10;0.10;;;11.80;99.90;;;;;;5052398;28;20189;-82
2023/01/05 01:47:59;;;;;;;0.10;0.10;;;11.80;99.90;;;;;;5053970;28;20193;-82
2023/01/05 01:50:35;;;;;;;0.10;0.10;;;11.80;99.90;;;;;;5053618;28;20186;-81
2023/01/05 01:53:05;;;;;;;0.10;0.10;;;11.80;99.90;;;;;;5068974;28;20204;-81
2023/01/05 01:55:33;;;;;;;0.10;0.10;;;11.80;99.90;;;;;;5069625;28;20186;-82
2023/01/05 01:58:00;;;;;;;0.10;0.10;;;11.80;99.90;;;;;;5069820;28;20201;-82
2023/01/05 02:00:25;;;;;;;0.07;0.07;;;11.80;99.90;;;;;;5055271;28;20209;-81
2023/01/05 02:02:53;;;;;;;0.10;0.10;;;11.90;99.90;;;;;;5068996;28;20255;-81
2023/01/05 02:05:26;;;;;;;0.10;0.10;;;11.90;99.90;;;;;;5053926;28;20189;-81
2023/01/05 02:07:52;;;;;;;0.10;0.10;;;11.80;99.90;;;;;;5069717;28;20178;-82
2023/01/05 02:10:44;;;;;;;0.10;0.10;;;11.80;99.90;;;;;;5054302;28;20251;-82
2023/01/05 02:13:36;;;;;;;0.10;0.10;;;11.80;99.90;;;;;;5049565;28;20213;-82
2023/01/05 02:16:02;;;;;;;0.10;0.10;;;11.90;99.90;;;;;;5053044;28;20186;-81
2023/01/05 02:18:51;;;;;;;0.10;0.10;;;11.90;99.90;;;;;;5052211;28;20658;-81
2023/01/05 02:21:33;;;;;;;0.10;0.10;;;11.90;99.90;;;;;;5044857;28;20275;-82
2023/01/05 02:24:13;;;;;;;0.10;0.10;;;11.90;99.90;;;;;;5066245;28;20209;-82
2023/01/05 02:27:06;;;;;;;0.10;0.10;;;11.80;99.90;;;;;;5055277;28;20193;-82
2023/01/05 02:30:09;;;;;;;0.10;0.10;;;11.80;99.90;;;;;;5054511;28;20270;-81
2023/01/05 02:33:10;;;;;;;0.10;0.10;;;11.80;99.90;;;;;;5070339;28;20220;-82
2023/01/05 02:36:00;;;;;;;0.10;0.10;;;11.80;99.90;;;;;;5067991;28;20192;-82
2023/01/05 02:38:37;;;;;;;0.10;0.10;;;11.80;99.90;;;;;;5067691;28;20190;-80
2023/01/05 02:41:17;;;;;;;0.10;0.10;;;11.80;99.90;;;;;;5071553;28;20228;-83
2023/01/05 02:43:44;;;;;;;0.10;0.10;;;11.70;99.90;;;;;;5068332;28;20210;-82
2023/01/05 02:46:09;;;;;;;0.10;0.10;;;11.70;99.90;;;;;;5052998;28;20213;-82
2023/01/05 02:48:36;;;;;;;0.10;0.10;;;11.60;99.90;;;;;;5052213;28;20212;-81
2023/01/05 02:51:06;;;;;;;0.10;0.10;;;11.60;99.90;;;;;;5069373;28;20190;-82
2023/01/05 02:53:46;;;;;;;0.10;0.10;;;11.60;99.90;;;;;;5053776;28;20208;-82
2023/01/05 02:56:20;;;;;;;0.10;0.10;;;11.60;99.90;;;;;;5051873;28;20283;-82
2023/01/05 02:58:56;;;;;;;0.10;0.10;;;11.50;99.90;;;;;;5053411;28;20209;-82
2023/01/05 03:01:38;;;;;;;0.10;0.10;;;11.60;99.90;;;;;;5050872;28;20210;-83
2023/01/05 03:04:24;;;;;;;0.10;0.10;;;11.60;99.90;;;;;;5053360;28;20212;-82
2023/01/05 03:06:55;;;;;;;0.00;0.00;;;11.60;99.90;;;;;;5052672;28;20208;-81
2023/01/05 03:09:25;;;;;;;0.10;0.10;;;11.60;99.90;;;;;;5068081;28;20184;-82
2023/01/05 03:15:31;;;;;;;0.10;0.10;;;11.50;99.90;;;;;;5054811;28;20185;-82
2023/01/05 03:18:05;;;;;;;0.10;0.10;;;11.40;99.90;;;;;;5052511;28;20271;-82
2023/01/05 03:20:33;;;;;;;0.10;0.10;;;11.40;99.90;;;;;;5066957;28;20629;-80
2023/01/05 03:37:36;;;;;;;0.10;0.10;;;11.30;99.90;;;;;;5051494;28;20209;-82
2023/01/05 03:40:08;;;;;;;0.10;0.10;;;11.30;99.90;;;;;;5065112;28;20193;-82
2023/01/05 03:42:36;;;;;;;0.10;0.10;;;11.30;99.90;;;;;;5052090;28;20225;-82
2023/01/05 03:45:01;;;;;;;0.10;0.10;;;11.40;99.90;;;;;;5054439;28;20216;-82
2023/01/05 03:47:27;;;;;;;0.10;0.10;;;11.30;99.90;;;;;;5051656;28;20664;-82
2023/01/05 03:49:52;;;;;;;0.10;0.10;;;11.40;99.90;;;;;;5067425;28;20185;-82
2023/01/05 03:52:18;;;;;;;0.10;0.10;;;11.40;99.90;;;;;;5049169;28;20214;-82
2023/01/05 03:54:43;;;;;;;0.07;0.07;;;11.40;99.90;;;;;;5054241;28;20284;-81
2023/01/05 03:57:09;;;;;;;0.10;0.10;;;11.40;99.90;;;;;;5051389;28;20206;-83
2023/01/05 03:59:34;;;;;;;0.00;0.00;;;11.30;99.90;;;;;;5052582;28;20200;-81
2023/01/05 04:02:00;;;;;;;0.10;0.10;;;11.30;99.90;;;;;;5052990;28;20247;-82
2023/01/05 04:04:25;;;;;;;0.10;0.10;;;11.40;99.90;;;;;;5067462;28;20188;-83
2023/01/05 04:06:51;;;;;;;0.10;0.10;;;11.40;99.90;;;;;;5065292;28;20215;-81
2023/01/05 04:09:16;;;;;;;0.10;0.10;;;11.40;99.90;;;;;;5067638;28;20185;-82
2023/01/05 04:11:42;;;;;;;0.10;0.10;;;11.40;99.90;;;;;;5068648;28;20186;-81
2023/01/05 04:14:07;;;;;;;0.10;0.10;;;11.30;99.90;;;;;;5054561;28;20280;-83
2023/01/05 04:16:33;;;;;;;0.10;0.10;;;11.20;99.90;;;;;;5053400;28;20259;-81
2023/01/05 04:18:58;;;;;;;0.10;0.10;;;11.20;99.90;;;;;;5054123;28;20197;-82
2023/01/05 04:21:24;;;;;;;0.10;0.10;;;11.10;99.90;;;;;;5068136;28;20241;-81
2023/01/05 04:23:49;;;;;;;0.10;0.10;;;11.20;99.90;;;;;;5053087;28;20212;-82
2023/01/05 04:26:15;;;;;;;0.10;0.10;;;11.20;99.90;;;;;;5069891;28;20192;-82
2023/01/05 04:28:40;;;;;;;0.10;0.10;;;11.20;99.90;;;;;;5067816;28;20298;-83
2023/01/05 04:31:06;;;;;;;0.10;0.10;;;11.20;99.90;;;;;;5068962;28;20193;-82
2023/01/05 04:33:31;;;;;;;0.10;0.10;;;11.20;99.90;;;;;;5066855;28;20571;-82
2023/01/05 04:35:57;;;;;;;0.10;0.10;;;11.20;99.90;;;;;;5069520;28;20557;-82
2023/01/05 04:38:22;;;;;;;0.10;0.10;;;11.20;99.90;;;;;;5065600;28;20193;-82
2023/01/05 04:40:49;;;;;;;0.10;0.10;;;11.10;99.90;;;;;;5069233;28;20213;-82
2023/01/05 04:43:14;;;;;;;0.10;0.10;;;11.10;99.90;;;;;;5067427;28;20229;-82
2023/01/05 04:45:40;;;;;;;0.10;0.10;;;11.10;99.90;;;;;;5051111;28;20811;-81
2023/01/05 04:48:06;;;;;;;0.10;0.10;;;11.10;99.90;;;;;;5067695;28;20204;-81
2023/01/05 04:50:31;;;;;;;0.10;0.10;;;11.10;99.90;;;;;;5051370;28;20551;-82
2023/01/05 04:52:57;;;;;;;0.10;0.10;;;11.10;99.90;;;;;;5052502;28;20217;-82
2023/01/05 04:55:22;;;;;;;0.10;0.10;;;11.10;99.90;;;;;;5052940;28;20196;-82
2023/01/05 04:57:48;;;;;;;0.10;0.10;;;11.10;99.90;;;;;;5066264;28;20247;-81
2023/01/05 05:00:13;;;;;;;0.10;0.10;;;11.10;99.90;;;;;;5070972;28;20287;-82
2023/01/05 05:02:39;;;;;;;0.10;0.10;;;11.10;99.90;;;;;;5054975;28;20212;-82
2023/01/05 05:05:05;;;;;;;0.10;0.10;;;11.10;99.90;;;;;;5069937;28;20718;-82
2023/01/05 05:07:30;;;;;;;0.10;0.10;;;11.10;99.90;;;;;;5069794;28;20193;-82
2023/01/05 05:09:56;;;;;;;0.10;0.10;;;11.10;99.90;;;;;;5056212;28;20253;-81
2023/01/05 05:12:21;;;;;;;0.10;0.10;;;11.10;99.90;;;;;;5053456;28;20197;-82
2023/01/05 05:14:47;;;;;;;0.10;0.10;;;11.10;99.90;;;;;;5071975;28;20185;-82
2023/01/05 05:17:13;;;;;;;0.10;0.10;;;11.10;99.90;;;;;;5072127;28;20351;-82
2023/01/05 05:19:39;;;;;;;0.10;0.10;;;11.10;99.90;;;;;;5069166;28;20185;-81
2023/01/05 05:22:05;;;;;;;0.10;0.10;;;11.10;99.90;;;;;;5056249;28;20217;-82
2023/01/05 05:24:30;;;;;;;0.10;0.10;;;11.10;99.90;;;;;;5055257;28;20185;-82
2023/01/05 05:26:56;;;;;;;0.10;0.10;;;11.10;99.90;;;;;;5068465;28;20178;-82
2023/01/05 05:29:22;;;;;;;0.10;0.10;;;11.10;99.90;;;;;;5055437;28;20188;-82
2023/01/05 05:31:48;;;;;;;0.10;0.10;;;11.10;99.90;;;;;;5054686;28;20181;-82
2023/01/05 05:34:14;;;;;;;0.10;0.10;;;11.10;99.90;;;;;;5054757;28;20547;-82
2023/01/05 05:36:39;;;;;;;0.10;0.10;;;11.10;99.90;;;;;;5056082;28;20189;-82
2023/01/05 05:39:05;;;;;;;0.10;0.10;;;11.00;99.90;;;;;;5055638;28;20193;-82
2023/01/05 05:41:31;;;;;;;0.00;0.00;;;11.00;99.90;;;;;;5053426;28;20232;-82
2023/01/05 05:44:01;;;;;;;0.10;0.10;;;11.00;99.90;;;;;;5068466;28;20335;-82
2023/01/05 05:46:27;;;;;;;0.10;0.10;;;11.10;99.90;;;;;;5054428;28;20254;-82
2023/01/05 05:48:54;;;;;;;0.10;0.10;;;11.10;99.90;;;;;;5069176;28;20181;-82
2023/01/05 05:51:19;;;;;;;0.10;0.10;;;11.00;99.90;;;;;;5055010;28;20879;-82
2023/01/05 05:53:45;;;;;;;0.10;0.10;;;11.10;99.90;;;;;;5054460;28;20205;-82
2023/01/05 05:56:10;;;;;;;0.10;0.10;;;11.00;99.90;;;;;;5053415;28;20299;-81
2023/01/05 05:58:36;;;;;;;0.10;0.10;;;11.10;99.90;;;;;;5069543;28;20196;-81
2023/01/05 06:01:01;;;;;;;0.10;0.10;;;11.00;99.90;;;;;;5054426;28;20288;-82
2023/01/05 06:03:27;;;;;;;0.10;0.10;;;11.00;99.90;;;;;;5068888;28;20296;-82
2023/01/05 06:05:53;;;;;;;0.10;0.10;;;11.00;99.90;;;;;;5052034;28;20993;-81
2023/01/05 06:08:18;;;;;;;0.10;0.10;;;11.00;99.90;;;;;;5069482;28;20189;-82
2023/01/05 06:10:44;;;;;;;0.10;0.10;;;11.10;99.90;;;;;;5069424;28;20189;-81
2023/01/05 06:13:09;;;;;;;0.10;0.10;;;11.10;99.90;;;;;;5054560;28;20697;-81
2023/01/05 06:15:35;;;;;;;0.10;0.10;;;11.00;99.90;;;;;;5053917;28;20243;-81
2023/01/05 06:18:00;;;;;;;0.10;0.10;;;11.00;99.90;;;;;;5069519;28;20216;-81
2023/01/05 06:20:26;;;;;;;0.10;0.10;;;11.00;99.90;;;;;;5055664;28;20336;-81
2023/01/05 06:22:51;;;;;;;0.07;0.07;;;11.00;99.90;;;;;;5069644;28;20262;-82
2023/01/05 06:25:17;;;;;;;0.10;0.10;;;11.00;99.90;;;;;;5055558;28;20579;-81
2023/01/05 06:27:42;;;;;;;0.10;0.10;;;11.00;99.90;;;;;;5067977;28;20732;-82
2023/01/05 06:30:08;;;;;;;0.10;0.10;;;11.00;99.90;;;;;;5071603;28;20194;-81
2023/01/05 06:32:34;;;;;;;0.10;0.10;;;11.00;99.90;;;;;;5067974;28;20213;-82
2023/01/05 06:35:00;;;;;;;0.10;0.10;;;11.00;99.90;;;;;;5054959;28;20322;-82
2023/01/05 06:37:25;;;;;;;0.10;0.10;;;11.00;99.90;;;;;;5054705;28;20682;-82
2023/01/05 06:39:51;;;;;;;0.10;0.10;;;11.00;99.90;;;;;;5053842;28;20281;-82
2023/01/05 06:42:16;;;;;;;0.10;0.10;;;11.00;99.90;;;;;;5069554;28;20622;-82
2023/01/05 06:44:42;;;;;;;0.10;0.10;;;10.90;99.90;;;;;;5069193;28;20237;-82
2023/01/05 06:47:07;;;;;;;0.10;0.10;;;10.90;99.90;;;;;;5052358;28;20187;-82
2023/01/05 06:49:33;;;;;;;0.10;0.10;;;10.90;99.90;;;;;;5049092;28;20188;-81
2023/01/05 06:51:58;;;;;;;0.10;0.10;;;10.90;99.90;;;;;;5050307;28;20232;-82
2023/01/05 06:54:25;;;;;;;0.10;0.10;;;10.90;99.90;;;;;;5052831;28;20776;-81
2023/01/05 06:56:50;;;;;;;0.10;0.10;;;10.90;99.90;;;;;;5068799;28;20272;-82
2023/01/05 06:59:16;;;;;;;0.10;0.10;;;10.90;99.90;;;;;;5070348;28;20740;-82
2023/01/05 07:01:41;;;;;;;0.10;0.10;;;10.90;99.90;;;;;;5054042;28;20449;-82
2023/01/05 07:04:07;;;;;;;0.10;0.10;;;10.90;99.90;;;;;;5070925;28;20238;-81
2023/01/05 07:06:34;;;;;;;0.10;0.10;;;10.90;99.90;;;;;;5061112;28;20177;-81
2023/01/05 07:09:00;;;;;;;0.10;0.10;;;10.90;99.90;;;;;;5070340;28;20193;-83
2023/01/05 07:11:25;;;;;;;0.10;0.10;;;10.90;99.90;;;;;;5068404;28;20197;-81
2023/01/05 07:13:51;;;;;;;0.10;0.10;;;10.80;99.90;;;;;;5068789;28;20217;-82
2023/01/05 07:16:17;;;;;;;0.10;0.10;;;10.80;99.90;;;;;;5054054;28;20188;-81
2023/01/05 07:18:43;;;;;;;0.10;0.10;;;10.80;99.90;;;;;;5057812;28;20181;-82
2023/01/05 07:21:08;;;;;;;0.10;0.10;;;10.80;99.90;;;;;;5056185;28;20200;-82
2023/01/05 07:23:36;;;;;;;0.10;0.10;;;10.80;99.90;;;;;;5057631;28;20213;-82
2023/01/05 07:26:03;;;;;;;0.10;0.10;;;10.80;99.90;;;;;;5068412;28;20236;-82
2023/01/05 07:28:28;;;;;;;0.10;0.10;;;10.80;99.90;;;;;;5073827;28;20318;-83
2023/01/05 07:30:54;;;;;;;0.10;0.10;;;10.80;99.90;;;;;;5070671;28;20311;-81
2023/01/05 07:33:19;;;;;;;0.10;0.10;;;10.80;99.90;;;;;;5057132;28;20274;-82
2023/01/05 07:35:45;;;;;;;0.10;0.10;;;10.80;99.90;;;;;;5072114;28;20202;-81
2023/01/05 07:38:10;;;;;;;0.10;0.10;;;10.80;99.90;;;;;;5057510;28;20192;-82
2023/01/05 07:40:36;;;;;;;0.10;0.10;;;10.80;99.90;;;;;;5070280;28;23032;-81
2023/01/05 07:43:01;;;;;;;0.10;0.10;;;10.80;99.90;;;;;;5073202;28;20757;-82
2023/01/05 07:45:27;;;;;;;0.10;0.10;;;10.80;99.90;;;;;;5054801;28;20205;-82
2023/01/05 07:47:52;;;;;;;0.10;0.10;;;10.80;99.90;;;;;;5054927;28;20188;-82
2023/01/05 07:50:18;;;;;;;0.10;0.10;;;10.80;99.90;;;;;;5067630;28;20196;-83
2023/01/05 07:52:43;;;;;;;0.10;0.10;;;10.80;99.90;;;;;;5072170;28;20211;-81
2023/01/05 07:55:09;;;;;;;4.40;4.27;;;10.80;99.90;;;;;;5056718;28;20201;-83
2023/01/05 07:57:35;;;;;;;0.10;0.10;;;10.80;99.90;;;;;;5057194;28;20292;-81
2023/01/05 08:00:01;;;;;;;0.10;0.10;;;10.80;99.90;;;;;;5057485;28;20181;-81
2023/01/05 08:02:27;;;;;;;0.10;0.10;;;10.90;99.90;;;;;;5071395;28;20232;-83
2023/01/05 08:04:53;;;;;;;0.10;0.10;;;10.90;99.90;;;;;;5065479;28;20284;-82
2023/01/05 08:07:18;;;;;;;0.10;0.10;;;10.90;99.90;;;;;;5040001;28;20185;-81
2023/01/05 08:12:29;;;;;;;0.10;0.10;;;10.90;99.90;;;;;;5049805;28;20212;-81
2023/01/05 08:14:55;;;;;;;0.10;0.10;;;10.90;99.90;;;;;;5053886;28;20256;-81
2023/01/05 08:17:20;;;;;;;0.10;0.10;;;10.90;99.90;;;;;;5051455;28;20213;-82
2023/01/05 08:19:46;;;;;;;0.10;0.10;;;11.00;99.90;;;;;;5068865;28;21062;-82
2023/01/05 08:22:12;;;;;;;0.10;0.10;;;11.00;99.90;;;;;;5066728;28;20379;-83
2023/01/05 08:24:37;;;;;;;0.10;0.10;;;11.10;99.90;;;;;;5066422;28;20184;-82
2023/01/05 08:27:03;;;;;;;0.10;0.10;;;11.10;99.90;;;;;;5066783;28;20196;-82
2023/01/05 08:29:28;;;;;;;0.10;0.10;;;11.10;99.90;;;;;;5069837;28;20203;-84
2023/01/05 08:31:54;;;;;;;0.10;0.10;;;11.10;99.90;;;;;;5062177;28;20196;-82
2023/01/05 08:34:20;;;;;;;0.10;0.10;;;11.10;99.90;;;;;;5053566;28;20307;-81
2023/01/05 08:36:45;;;;;;;0.10;0.10;;;11.10;99.90;;;;;;5057358;28;20204;-81
2023/01/05 08:39:12;;;;;;;0.10;0.10;;;11.20;99.90;;;;;;5057258;28;20704;-82
2023/01/05 08:41:39;;;;;;;0.10;0.10;;;11.20;99.90;;;;;;5055090;28;20213;-81
2023/01/05 08:44:09;;;;;;;0.10;0.10;;;11.20;99.90;;;;;;5057397;28;20216;-82
2023/01/05 08:46:35;;;;;;;0.10;0.10;;;11.20;99.90;;;;;;5054491;28;20186;-82
2023/01/05 08:49:03;;;;;;;0.10;0.10;;;11.20;99.90;;;;;;5057563;28;20655;-81
2023/01/05 08:51:29;;;;;;;0.10;0.10;;;11.30;99.90;;;;;;5054742;28;20888;-81
2023/01/05 08:53:56;;;;;;;0.10;0.10;;;11.20;99.90;;;;;;5056339;28;20207;-82
2023/01/05 08:56:26;;;;;;;0.10;0.10;;;11.30;99.90;;;;;;5071166;28;20200;-81
2023/01/05 08:58:54;;;;;;;0.10;0.10;;;11.30;99.90;;;;;;5054315;28;20208;-83
2023/01/05 09:01:23;;;;;;;0.10;0.10;;;11.30;99.90;;;;;;5054018;28;20339;-83
2023/01/05 09:03:48;;;;;;;0.10;0.10;;;11.30;99.90;;;;;;5051734;28;20209;-82
2023/01/05 09:06:14;;;;;;;0.10;0.10;;;11.40;99.90;;;;;;5070576;28;20185;-83
2023/01/05 09:08:42;;;;;;;0.10;0.10;;;11.40;99.90;;;;;;5056415;28;20181;-82
2023/01/05 09:11:19;;;;;;;0.10;0.10;;;11.50;99.90;;;;;;5058049;28;20545;-82
2023/01/05 09:13:48;;;;;;;0.10;0.10;;;11.50;99.90;;;;;;5057296;28;20515;-82
2023/01/05 09:16:17;;;;;;;0.10;0.10;;;11.60;99.90;;;;;;5059027;28;20189;-82
2023/01/05 09:18:43;;;;;;;0.10;0.10;;;11.60;99.90;;;;;;5073329;28;20189;-83
2023/01/05 09:21:09;;;;;;;0.10;0.10;;;11.60;99.90;;;;;;5072553;28;20219;-82
2023/01/05 09:23:36;;;;;;;0.10;0.10;;;11.60;99.90;;;;;;5057167;28;20205;-81
2023/01/05 09:26:03;;;;;;;0.10;0.10;;;11.60;99.90;;;;;;5057249;28;20181;-83
2023/01/05 09:28:29;;;;;;;0.10;0.10;;;11.60;99.90;;;;;;5072720;28;20186;-82
2023/01/05 09:30:54;;;;;;;0.10;0.10;;;11.60;99.90;;;;;;5072609;28;20196;-82
2023/01/05 09:33:20;;;;;;;0.10;0.10;;;11.50;99.90;;;;;;5054231;28;20221;-83
2023/01/05 09:35:55;;;;;;;0.10;0.10;;;11.50;99.90;;;;;;5073496;28;20188;-82
2023/01/05 09:38:22;;;;;;;0.10;0.10;;;11.50;99.90;;;;;;5056761;28;20879;-82
2023/01/05 09:40:50;;;;;;;0.10;0.10;;;11.50;99.90;;;;;;5054965;28;20205;-83
2023/01/05 09:43:29;;;;;;;0.10;0.10;;;11.60;99.90;;;;;;5071606;28;20323;-83
2023/01/05 09:45:56;;;;;;;0.10;0.10;;;11.80;99.90;;;;;;5053631;28;20173;-82
2023/01/05 09:48:23;;;;;;;0.10;0.10;;;11.80;99.90;;;;;;5055890;28;20190;-82
2023/01/05 09:50:50;;;;;;;0.10;0.10;;;11.80;99.90;;;;;;5070961;28;20194;-82
2023/01/05 09:53:22;;;;;;;0.10;0.10;;;11.80;99.90;;;;;;5055088;28;20235;-83
2023/01/05 09:55:49;;;;;;;0.10;0.10;;;11.80;99.90;;;;;;5052599;28;20650;-82
2023/01/05 09:58:19;;;;;;;0.10;0.10;;;11.90;99.90;;;;;;5054909;28;20659;-82
2023/01/05 10:01:03;;;;;;;0.10;0.10;;;11.90;99.90;;;;;;5052496;28;20215;-83
2023/01/05 10:03:30;;;;;;;0.10;0.10;;;12.00;99.90;;;;;;5054123;28;20603;-83
2023/01/05 10:05:57;;;;;;;0.10;0.10;;;12.00;99.90;;;;;;5056995;28;20196;-83
2023/01/05 10:08:38;;;;;;;0.10;0.10;;;12.10;99.90;;;;;;5069112;28;20185;-84
2023/01/05 10:14:05;;;;;;;0.10;0.10;;;12.10;99.90;;;;;;5056373;28;20283;-83
2023/01/05 10:16:31;;;;;;;0.10;0.10;;;12.00;99.90;;;;;;5056655;28;20189;-82
2023/01/05 10:18:57;;;;;;;0.10;0.10;;;12.00;99.90;;;;;;5059656;28;20255;-82
2023/01/05 10:21:46;;;;;;;0.10;0.10;;;11.90;99.90;;;;;;5052381;28;20213;-82
2023/01/05 10:24:26;;;;;;;0.10;0.10;;;11.90;99.90;;;;;;5074198;28;20188;-83
2023/01/05 10:27:16;;;;;;;0.10;0.10;;;11.90;99.90;;;;;;5070123;28;20199;-82
2023/01/05 10:29:44;;;;;;;0.10;0.10;;;11.90;99.90;;;;;;5057938;28;20188;-82
2023/01/05 10:32:30;;;;;;;0.10;0.10;;;11.90;99.90;;;;;;5056170;28;20220;-82
2023/01/05 10:34:57;;;;;;;0.07;0.07;;;11.90;99.90;;;;;;5055871;28;20208;-82
2023/01/05 10:37:44;;;;;;;0.10;0.10;;;12.00;99.90;;;;;;5051185;28;20195;-81
2023/01/05 10:40:21;;;;;;;0.10;0.10;;;12.00;99.90;;;;;;5070421;28;20182;-83
2023/01/05 10:42:47;;;;;;;0.10;0.10;;;12.10;99.90;;;;;;5071064;28;20237;-81
2023/01/05 10:45:15;;;;;;;0.10;0.10;;;12.10;99.90;;;;;;5057310;28;20185;-82
2023/01/05 10:47:43;;;;;;;0.10;0.10;;;12.10;99.90;;;;;;5056933;28;20271;-83
2023/01/05 10:50:30;;;;;;;0.10;0.10;;;12.20;99.90;;;;;;5057726;28;20194;-82
2023/01/05 10:52:57;;;;;;;0.10;0.10;;;12.30;99.90;;;;;;5054431;28;20220;-82
2023/01/05 10:55:24;;;;;;;0.10;0.10;;;12.30;99.90;;;;;;5055329;28;20199;-83
2023/01/05 10:57:49;;;;;;;0.10;0.10;;;12.30;99.90;;;;;;5056712;28;20236;-82
2023/01/05 11:00:20;;;;;;;0.10;0.10;;;12.30;99.90;;;;;;5071182;28;20441;-82
2023/01/05 11:02:58;;;;;;;0.10;0.10;;;12.40;99.90;;;;;;5053378;28;20232;-82
2023/01/05 11:05:36;;;;;;;0.10;0.10;;;12.40;99.90;;;;;;5056947;28;20195;-82
2023/01/05 11:08:05;;;;;;;0.10;0.10;;;12.40;99.90;;;;;;5053242;28;20192;-83
2023/01/05 11:10:47;;;;;;;0.10;0.10;;;12.50;99.90;;;;;;5052182;28;20184;-82
2023/01/05 11:13:15;;;;;;;0.10;0.10;;;12.40;99.90;;;;;;5050683;28;20236;-82
2023/01/05 11:15:48;;;;;;;0.10;0.10;;;12.50;99.90;;;;;;5073500;28;20188;-83
2023/01/05 11:18:25;;;;;;;0.10;0.10;;;12.50;99.90;;;;;;5056011;28;20199;-82
2023/01/05 11:21:04;;;;;;;0.10;0.10;;;12.50;99.90;;;;;;5056803;28;20208;-83
2023/01/05 11:23:37;;;;;;;0.10;0.10;;;12.60;99.90;;;;;;5056527;28;20566;-82
2023/01/05 11:26:18;;;;;;;0.10;0.10;;;12.60;99.90;;;;;;5054894;28;20186;-83
2023/01/05 11:29:06;;;;;;;0.10;0.10;;;12.70;99.90;;;;;;5055300;28;20189;-84
2023/01/05 11:31:36;;;;;;;0.10;0.10;;;12.80;99.90;;;;;;5069348;28;20614;-82
2023/01/05 11:34:13;;;;;;;0.10;0.10;;;12.90;99.90;;;;;;5052140;28;20205;-83
2023/01/05 11:36:39;;;;;;;0.10;0.10;;;13.00;99.90;;;;;;5067586;28;21172;-82
2023/01/05 11:39:05;;;;;;;0.10;0.10;;;13.10;99.90;;;;;;5068998;28;20727;-81
2023/01/05 11:41:31;;;;;;;0.10;0.10;;;13.00;99.90;;;;;;5069408;28;20211;-81
2023/01/05 11:43:59;;;;;;;0.10;0.10;;;13.00;99.90;;;;;;5049181;28;20205;-83
2023/01/05 11:46:25;;;;;;;0.10;0.10;;;13.10;99.90;;;;;;5071350;28;20178;-81
2023/01/05 11:48:54;;;;;;;0.10;0.10;;;13.10;99.90;;;;;;5055558;28;20196;-82
2023/01/05 11:51:33;;;;;;;0.10;0.10;;;13.10;99.90;;;;;;5055830;28;20186;-82
2023/01/05 11:53:59;;;;;;;0.10;0.10;;;13.10;99.90;;;;;;5070969;28;20254;-81
2023/01/05 11:56:25;;;;;;;0.10;0.10;;;13.00;99.90;;;;;;5067751;28;20197;-82
2023/01/05 11:58:56;;;;;;;0.10;0.10;;;12.90;99.90;;;;;;5055985;28;20197;-81
2023/01/05 12:01:37;;;;;;;0.10;0.10;;;12.90;99.90;;;;;;5070052;28;20254;-81
2023/01/05 12:04:44;;;;;;;0.10;0.10;;;12.90;99.90;;;;;;5055569;28;20317;-82
2023/01/05 12:07:19;;;;;;;0.00;0.00;;;12.90;99.90;;;;;;5052618;28;20212;-82
2023/01/05 12:10:02;;;;;;;0.10;0.10;;;13.00;99.90;;;;;;5072315;28;20178;-82
2023/01/05 12:12:48;;;;;;;0.10;0.10;;;13.10;99.90;;;;;;5069809;28;20251;-81
2023/01/05 12:15:32;;;;;;;0.10;0.10;;;13.20;99.90;;;;;;5054886;28;20201;-82
2023/01/05 12:18:23;;;;;;;0.00;0.00;;;13.30;99.90;;;;;;5067499;28;20197;-81
2023/01/05 12:21:17;;;;;;;0.10;0.10;;;13.30;99.90;;;;;;5052969;28;20215;-82
2023/01/05 12:24:20;;;;;;;0.10;0.10;;;13.30;99.90;;;;;;5052316;28;20695;-82
2023/01/05 12:27:27;;;;;;;0.10;0.10;;;13.40;99.90;;;;;;5056447;28;20181;-81
2023/01/05 12:30:23;;;;;;;0.10;0.10;;;13.30;99.90;;;;;;5067021;28;20681;-82
2023/01/05 12:33:12;;;;;;;0.10;0.10;;;13.30;99.90;;;;;;5052788;28;20222;-82
2023/01/05 12:36:10;;;;;;;0.10;0.10;;;13.40;99.90;;;;;;5066465;28;20193;-83
2023/01/05 12:38:59;;;;;;;0.10;0.10;;;13.30;99.90;;;;;;5041439;28;20201;-82
2023/01/05 12:41:27;;;;;;;0.10;0.10;;;13.30;99.90;;;;;;5052251;28;20922;-83
2023/01/05 12:44:20;;;;;;;0.10;0.10;;;13.20;99.90;;;;;;5066285;28;20209;-83
2023/01/05 12:47:08;;;;;;;0.10;0.10;;;13.20;99.90;;;;;;5069632;28;20340;-83
2023/01/05 12:49:39;;;;;;;0.10;0.10;;;13.20;99.90;;;;;;5051780;28;20267;-83
2023/01/05 12:52:15;;;;;;;0.10;0.10;;;13.10;99.90;;;;;;5050671;28;20757;-84
2023/01/05 12:55:07;;;;;;;0.10;0.10;;;13.00;99.90;;;;;;5053363;28;20182;-84
2023/01/05 12:57:40;;;;;;;0.10;0.10;;;13.20;99.90;;;;;;5041117;28;20287;-84
2023/01/05 13:00:13;;;;;;;0.10;0.10;;;13.20;99.90;;;;;;5070941;28;20190;-85
2023/01/05 13:02:45;;;;;;;0.10;0.10;;;13.40;99.90;;;;;;5054013;28;20264;-83
2023/01/05 13:05:26;;;;;;;0.10;0.10;;;13.60;99.90;;;;;;5067159;28;20530;-83
2023/01/05 13:08:09;;;;;;;0.10;0.10;;;13.80;99.90;;;;;;5066410;28;20183;-84
2023/01/05 13:10:53;;;;;;;0.10;0.10;;;13.90;99.90;;;;;;5068161;28;20183;-83
2023/01/05 13:13:26;;;;;;;0.10;0.10;;;14.10;99.90;;;;;;5067410;28;20206;-82
2023/01/05 13:16:01;;;;;;;0.10;0.10;;;13.90;99.90;;;;;;5054539;28;20193;-82
2023/01/05 13:18:28;;;;;;;0.10;0.10;;;13.70;99.90;;;;;;5051725;28;20186;-83
2023/01/05 13:21:00;;;;;;;0.10;0.10;;;13.50;99.90;;;;;;5054578;28;20227;-85
2023/01/05 13:23:27;;;;;;;0.10;0.10;;;13.30;99.90;;;;;;5071324;28;20282;-83
2023/01/05 13:26:01;;;;;;;0.10;0.10;;;13.20;99.90;;;;;;5058330;28;20565;-83
2023/01/05 13:28:28;;;;;;;0.10;0.10;;;13.20;99.90;;;;;;5057388;28;20179;-83
2023/01/05 13:31:17;;;;;;;0.10;0.10;;;13.30;99.90;;;;;;5055961;28;20213;-84
2023/01/05 13:34:10;;;;;;;0.10;0.10;;;13.50;99.90;;;;;;5054908;28;20214;-84
2023/01/05 13:37:05;;;;;;;0.10;0.10;;;13.50;99.90;;;;;;5072831;28;20211;-83
2023/01/05 13:40:03;;;;;;;0.10;0.10;;;13.50;99.90;;;;;;5056345;28;20245;-84
2023/01/05 13:42:59;;;;;;;0.10;0.10;;;13.40;99.90;;;;;;5057552;28;20225;-84